createdAt,value
2022-09-10T00:03:38.378Z,15.50
2022-09-10T00:06:10.610Z,15.50
2022-09-10T00:08:39.694Z,15.50
2022-09-10T00:11:10.023Z,15.50
2022-09-10T00:13:41.365Z,15.50
2022-09-10T00:16:11.697Z,15.50
2022-09-10T00:18:40.614Z,15.50
2022-09-10T00:21:12.494Z,15.50
2022-09-10T00:23:46.292Z,15.50
2022-09-10T00:26:40.707Z,15.40
2022-09-10T00:29:14.381Z,15.40
2022-09-10T00:31:43.369Z,15.40
2022-09-10T00:34:13.413Z,15.40
2022-09-10T00:36:44.124Z,15.40
2022-09-10T00:39:15.492Z,15.40
2022-09-10T00:41:46.451Z,15.50
2022-09-10T00:44:42.236Z,15.50
2022-09-10T00:47:27.785Z,15.40
2022-09-10T00:50:03.590Z,15.40
2022-09-10T00:52:35.371Z,15.40
2022-09-10T00:55:05.829Z,15.40
2022-09-10T00:57:33.455Z,15.40
2022-09-10T01:00:07.046Z,15.40
2022-09-10T01:02:34.776Z,15.40
2022-09-10T01:05:06.058Z,15.40
2022-09-10T01:07:34.374Z,15.40
2022-09-10T01:10:06.879Z,15.50
2022-09-10T01:12:52.933Z,15.50
2022-09-10T01:15:40.641Z,15.50
2022-09-10T01:18:17.365Z,15.50
2022-09-10T01:21:02.689Z,15.50
2022-09-10T01:23:32.982Z,15.50
2022-09-10T01:26:21.972Z,15.60
2022-09-10T01:29:08.953Z,15.60
2022-09-10T01:31:51.647Z,15.70
2022-09-10T01:34:27.275Z,15.70
2022-09-10T01:37:08.289Z,15.70
2022-09-10T01:39:37.638Z,15.70
2022-09-10T01:42:05.406Z,15.70
2022-09-10T01:44:43.145Z,15.70
2022-09-10T01:47:34.624Z,15.70
2022-09-10T01:50:32.154Z,15.70
2022-09-10T01:53:01.336Z,15.70
2022-09-10T01:55:32.970Z,15.80
2022-09-10T01:58:42.178Z,15.70
2022-09-10T02:01:45.186Z,15.80
2022-09-10T02:04:14.964Z,15.80
2022-09-10T02:06:48.412Z,15.80
2022-09-10T02:09:18.525Z,15.70
2022-09-10T02:11:56.358Z,15.70
2022-09-10T02:15:08.669Z,15.70
2022-09-10T02:17:49.917Z,15.70
2022-09-10T02:20:19.892Z,15.60
2022-09-10T02:22:57.023Z,15.60
2022-09-10T02:25:28.598Z,15.60
2022-09-10T02:28:02.848Z,15.60
2022-09-10T02:30:33.987Z,15.60
2022-09-10T02:33:06.338Z,15.60
2022-09-10T02:35:34.895Z,15.60
2022-09-10T02:38:05.964Z,15.50
2022-09-10T02:40:39.569Z,15.50
2022-09-10T02:43:10.137Z,15.50
2022-09-10T02:46:09.623Z,15.50
2022-09-10T02:48:43.609Z,15.40
2022-09-10T02:51:12.267Z,15.50
2022-09-10T02:53:51.905Z,15.50
2022-09-10T02:56:20.804Z,15.50
2022-09-10T02:58:49.514Z,15.50
2022-09-10T03:01:20.331Z,15.50
2022-09-10T03:03:59.583Z,15.50
2022-09-10T03:06:27.897Z,15.50
2022-09-10T03:08:58.179Z,15.50
2022-09-10T03:11:27.768Z,15.50
2022-09-10T03:13:58.088Z,15.50
2022-09-10T03:16:26.196Z,15.50
2022-09-10T03:18:55.936Z,15.60
2022-09-10T03:21:27.839Z,15.60
2022-09-10T03:23:58.178Z,15.60
2022-09-10T03:26:34.584Z,15.60
2022-09-10T03:29:04.951Z,15.60
2022-09-10T03:31:39.964Z,15.70
2022-09-10T03:34:08.390Z,15.70
2022-09-10T03:36:35.713Z,15.70
2022-09-10T03:39:05.672Z,15.80
2022-09-10T03:41:37.181Z,15.80
2022-09-10T03:44:05.866Z,15.70
2022-09-10T03:46:33.014Z,15.80
2022-09-10T03:49:05.409Z,15.70
2022-09-10T03:51:34.342Z,15.80
2022-09-10T03:54:06.587Z,15.70
2022-09-10T03:56:34.339Z,15.80
2022-09-10T03:59:04.625Z,15.80
2022-09-10T04:01:33.254Z,15.80
2022-09-10T04:04:03.643Z,15.80
2022-09-10T04:06:33.299Z,15.80
2022-09-10T04:09:03.039Z,15.80
2022-09-10T04:11:31.249Z,15.90
2022-09-10T04:14:03.617Z,15.90
2022-09-10T04:16:32.719Z,15.90
2022-09-10T04:19:07.044Z,15.90
2022-09-10T04:21:36.013Z,15.80
2022-09-10T04:24:10.023Z,15.80
2022-09-10T04:26:38.347Z,15.80
2022-09-10T04:29:07.278Z,15.90
2022-09-10T04:31:35.099Z,15.90
2022-09-10T04:34:12.666Z,15.90
2022-09-10T04:36:40.134Z,15.90
2022-09-10T04:39:09.135Z,15.90
2022-09-10T04:41:37.742Z,15.90
2022-09-10T04:44:06.941Z,15.90
2022-09-10T04:46:41.474Z,15.90
2022-09-10T04:49:17.008Z,15.90
2022-09-10T04:51:45.100Z,15.90
2022-09-10T04:54:14.529Z,15.90
2022-09-10T04:56:48.084Z,15.90
2022-09-10T04:59:15.428Z,15.90
2022-09-10T05:01:44.988Z,15.90
2022-09-10T05:04:18.718Z,15.90
2022-09-10T05:06:50.397Z,15.90
2022-09-10T05:09:18.287Z,15.90
2022-09-10T05:11:49.891Z,15.90
2022-09-10T05:14:21.666Z,15.90
2022-09-10T05:16:49.196Z,15.90
2022-09-10T05:19:18.073Z,15.90
2022-09-10T05:22:03.251Z,15.90
2022-09-10T05:24:36.678Z,15.90
2022-09-10T05:27:06.897Z,15.90
2022-09-10T05:29:35.648Z,15.90
2022-09-10T05:32:03.835Z,15.90
2022-09-10T05:34:32.068Z,15.90
2022-09-10T05:37:03.632Z,16.00
2022-09-10T05:39:31.046Z,16.00
2022-09-10T05:42:05.105Z,16.00
2022-09-10T05:44:35.352Z,15.90
2022-09-10T05:47:04.002Z,16.00
2022-09-10T05:49:35.354Z,16.00
2022-09-10T05:52:03.391Z,15.90
2022-09-10T05:54:31.375Z,16.00
2022-09-10T05:56:59.597Z,16.00
2022-09-10T05:59:28.907Z,15.90
2022-09-10T06:01:56.505Z,15.90
2022-09-10T06:04:25.361Z,15.90
2022-09-10T06:07:03.173Z,15.90
2022-09-10T06:09:32.957Z,15.90
2022-09-10T06:12:06.848Z,15.90
2022-09-10T06:14:35.632Z,15.90
2022-09-10T06:17:11.400Z,15.90
2022-09-10T06:19:41.314Z,15.90
2022-09-10T06:22:11.242Z,15.90
2022-09-10T06:24:41.129Z,15.90
2022-09-10T06:27:10.018Z,15.90
2022-09-10T06:29:39.952Z,15.90
2022-09-10T06:32:13.141Z,15.90
2022-09-10T06:34:41.792Z,15.90
2022-09-10T06:37:11.174Z,15.90
2022-09-10T06:39:50.221Z,15.90
2022-09-10T06:42:51.116Z,16.00
2022-09-10T06:45:24.808Z,16.00
2022-09-10T06:48:49.802Z,16.00
2022-09-10T06:51:22.325Z,16.00
2022-09-10T06:53:52.830Z,16.00
2022-09-10T06:56:23.571Z,16.00
2022-09-10T06:58:53.405Z,16.00
2022-09-10T07:01:24.008Z,16.00
2022-09-10T07:03:58.375Z,16.00
2022-09-10T07:06:33.738Z,16.00
2022-09-10T07:09:19.928Z,16.00
2022-09-10T07:11:57.584Z,16.00
2022-09-10T07:14:26.091Z,16.00
2022-09-10T07:16:57.837Z,16.00
2022-09-10T07:19:32.561Z,16.00
2022-09-10T07:22:03.642Z,16.00
2022-09-10T07:24:33.691Z,16.00
2022-09-10T07:27:15.723Z,16.00
2022-09-10T07:29:44.412Z,16.00
2022-09-10T07:32:15.648Z,16.00
2022-09-10T07:34:43.309Z,16.00
2022-09-10T07:37:15.766Z,16.00
2022-09-10T07:39:44.445Z,16.00
2022-09-10T07:42:13.043Z,16.10
2022-09-10T07:44:41.283Z,16.10
2022-09-10T07:47:08.614Z,16.10
2022-09-10T07:49:36.069Z,16.10
2022-09-10T07:52:05.013Z,16.10
2022-09-10T07:54:41.417Z,16.20
2022-09-10T07:57:09.907Z,16.20
2022-09-10T07:59:46.260Z,16.20
2022-09-10T08:02:18.592Z,16.20
2022-09-10T08:04:56.417Z,16.20
2022-09-10T08:07:24.598Z,16.30
2022-09-10T08:09:52.009Z,16.30
2022-09-10T08:12:20.490Z,16.30
2022-09-10T08:14:51.431Z,16.30
2022-09-10T08:17:20.116Z,16.40
2022-09-10T08:19:50.808Z,16.40
2022-09-10T08:22:18.471Z,16.40
2022-09-10T08:24:54.051Z,16.40
2022-09-10T08:27:25.807Z,16.50
2022-09-10T08:29:55.062Z,16.50
2022-09-10T08:32:23.330Z,16.50
2022-09-10T08:34:55.515Z,16.50
2022-09-10T08:37:23.087Z,16.50
2022-09-10T08:39:56.436Z,16.50
2022-09-10T08:42:50.773Z,16.50
2022-09-10T08:45:33.151Z,16.50
2022-09-10T08:48:41.007Z,16.50
2022-09-10T08:51:31.403Z,16.60
2022-09-10T08:54:04.106Z,16.70
2022-09-10T08:56:34.841Z,16.90
2022-09-10T08:59:22.454Z,17.00
2022-09-10T09:02:03.215Z,17.10
2022-09-10T09:05:03.670Z,17.20
2022-09-10T09:07:40.899Z,17.20
2022-09-10T09:10:37.267Z,17.20
2022-09-10T09:13:39.101Z,17.10
2022-09-10T09:16:38.946Z,17.20
2022-09-10T09:19:47.327Z,17.30
2022-09-10T09:22:19.498Z,17.40
2022-09-10T09:25:03.343Z,17.40
2022-09-10T09:27:36.920Z,17.50
2022-09-10T09:30:19.832Z,17.60
2022-09-10T09:32:50.961Z,17.80
2022-09-10T09:35:31.393Z,17.90
2022-09-10T09:38:24.005Z,18.00
2022-09-10T09:41:04.919Z,18.20
2022-09-10T09:43:46.740Z,18.20
2022-09-10T09:46:17.939Z,18.10
2022-09-10T09:48:56.742Z,18.10
2022-09-10T09:51:27.192Z,18.20
2022-09-10T09:54:39.433Z,18.20
2022-09-10T09:57:02.841Z,18.20
2022-09-10T09:59:35.053Z,18.10
2022-09-10T10:05:26.991Z,18.00
2022-09-10T10:07:54.531Z,18.00
2022-09-10T10:10:28.317Z,18.10
2022-09-10T10:12:56.425Z,18.00
2022-09-10T10:15:39.058Z,18.00
2022-09-10T10:18:33.162Z,18.00
2022-09-10T10:21:33.111Z,17.90
2022-09-10T10:24:03.959Z,17.90
2022-09-10T10:26:35.167Z,17.80
2022-09-10T10:29:19.804Z,17.70
2022-09-10T10:31:49.768Z,17.70
2022-09-10T10:34:56.354Z,17.70
2022-09-10T10:37:50.467Z,17.70
2022-09-10T10:40:28.687Z,17.80
2022-09-10T10:43:07.760Z,17.80
2022-09-10T10:45:37.773Z,17.70
2022-09-10T10:48:13.082Z,17.70
2022-09-10T10:51:04.367Z,17.80
2022-09-10T10:53:53.292Z,17.90
2022-09-10T10:56:56.344Z,17.90
2022-09-10T10:59:36.565Z,18.00
2022-09-10T11:02:14.301Z,18.00
2022-09-10T11:04:50.535Z,18.00
2022-09-10T11:07:41.200Z,18.10
2022-09-10T11:10:28.214Z,18.10
2022-09-10T11:13:22.224Z,18.10
2022-09-10T11:16:05.219Z,18.10
2022-09-10T11:18:48.864Z,18.10
2022-09-10T11:21:44.268Z,18.10
2022-09-10T11:24:16.979Z,18.00
2022-09-10T11:26:51.360Z,18.00
2022-09-10T11:30:10.607Z,18.10
2022-09-10T11:33:02.353Z,18.10
2022-09-10T11:35:37.913Z,18.10
2022-09-10T11:38:42.192Z,18.10
2022-09-10T11:41:32.905Z,18.20
2022-09-10T11:44:16.742Z,18.20
2022-09-10T11:47:09.802Z,18.20
2022-09-10T11:50:02.323Z,18.20
2022-09-10T11:52:35.074Z,18.20
2022-09-10T11:55:09.223Z,18.20
2022-09-10T11:58:05.924Z,18.30
2022-09-10T12:00:42.370Z,18.30
2022-09-10T12:03:10.758Z,18.40
2022-09-10T12:05:50.711Z,18.60
2022-09-10T12:08:56.072Z,18.70
2022-09-10T12:11:40.909Z,18.90
2022-09-10T12:14:17.945Z,19.00
2022-09-10T12:16:48.102Z,19.30
2022-09-10T12:19:35.076Z,19.50
2022-09-10T12:22:17.452Z,19.60
2022-09-10T12:24:56.582Z,19.90
2022-09-10T12:27:45.428Z,20.00
2022-09-10T12:30:25.229Z,20.00
2022-09-10T12:33:01.502Z,20.10
2022-09-10T12:35:35.911Z,20.00
2022-09-10T12:38:40.695Z,20.00
2022-09-10T12:41:32.771Z,20.00
2022-09-10T12:44:25.328Z,20.10
2022-09-10T12:47:17.822Z,20.20
2022-09-10T12:49:51.118Z,20.20
2022-09-10T12:52:46.457Z,20.20
2022-09-10T12:55:51.818Z,20.20
2022-09-10T12:58:36.838Z,20.30
2022-09-10T13:01:22.294Z,20.40
2022-09-10T13:03:57.637Z,20.50
2022-09-10T13:06:43.154Z,20.70
2022-09-10T13:09:36.898Z,20.90
2022-09-10T13:12:18.601Z,20.80
2022-09-10T13:14:53.821Z,20.80
2022-09-10T13:17:41.245Z,20.70
2022-09-10T13:20:23.353Z,20.40
2022-09-10T13:22:56.388Z,20.20
2022-09-10T13:25:37.851Z,20.00
2022-09-10T13:28:31.493Z,19.90
2022-09-10T13:31:17.299Z,19.80
2022-09-10T13:33:53.800Z,19.80
2022-09-10T13:36:26.482Z,19.80
2022-09-10T13:39:07.399Z,19.70
2022-09-10T13:42:03.922Z,19.70
2022-09-10T13:44:33.339Z,19.70
2022-09-10T13:47:09.694Z,19.90
2022-09-10T13:49:52.015Z,20.20
2022-09-10T13:52:25.550Z,20.70
2022-09-10T13:54:56.025Z,21.30
2022-09-10T13:57:33.032Z,21.60
2022-09-10T14:00:14.422Z,21.80
2022-09-10T14:02:53.950Z,21.90
2022-09-10T14:05:23.455Z,22.00
2022-09-10T14:07:54.553Z,22.00
2022-09-10T14:10:23.390Z,21.90
2022-09-10T14:12:52.698Z,21.70
2022-09-10T14:15:25.528Z,21.60
2022-09-10T14:17:57.998Z,21.50
2022-09-10T14:20:25.329Z,21.30
2022-09-10T14:23:22.533Z,21.20
2022-09-10T14:26:21.818Z,21.10
2022-09-10T14:29:25.942Z,21.00
2022-09-10T14:31:54.539Z,20.90
2022-09-10T14:34:38.034Z,20.80
2022-09-10T14:37:32.658Z,20.80
2022-09-10T14:40:22.250Z,20.70
2022-09-10T14:42:50.735Z,20.70
2022-09-10T14:45:38.148Z,20.60
2022-09-10T14:48:06.804Z,20.60
2022-09-10T14:50:37.219Z,20.60
2022-09-10T14:53:05.324Z,20.60
2022-09-10T14:55:33.206Z,20.60
2022-09-10T14:58:02.729Z,20.60
2022-09-10T15:00:32.862Z,20.60
2022-09-10T15:03:03.742Z,20.50
2022-09-10T15:05:31.668Z,20.60
2022-09-10T15:07:59.429Z,20.50
2022-09-10T15:10:29.068Z,20.60
2022-09-10T15:12:56.971Z,20.50
2022-09-10T15:15:25.463Z,20.50
2022-09-10T15:17:54.322Z,20.40
2022-09-10T15:20:27.261Z,20.50
2022-09-10T15:22:55.370Z,20.50
2022-09-10T15:25:38.400Z,20.50
2022-09-10T15:28:07.693Z,20.50
2022-09-10T15:30:37.230Z,20.50
2022-09-10T15:33:06.341Z,20.50
2022-09-10T15:35:34.905Z,20.50
2022-09-10T15:38:18.835Z,20.50
2022-09-10T15:40:55.543Z,20.50
2022-09-10T15:43:26.914Z,20.60
2022-09-10T15:45:54.775Z,20.50
2022-09-10T15:48:27.032Z,20.50
2022-09-10T15:50:56.366Z,20.40
2022-09-10T15:53:24.144Z,20.40
2022-09-10T15:55:55.193Z,20.40
2022-09-10T15:58:22.701Z,20.30
2022-09-10T16:00:50.410Z,20.30
2022-09-10T16:03:18.280Z,20.30
2022-09-10T16:05:46.444Z,20.20
2022-09-10T16:08:13.745Z,20.20
2022-09-10T16:10:41.263Z,20.20
2022-09-10T16:13:09.469Z,20.10
2022-09-10T16:15:43.075Z,20.10
2022-09-10T16:18:32.653Z,20.10
2022-09-10T16:21:09.917Z,20.10
2022-09-10T16:23:39.633Z,20.00
2022-09-10T16:26:12.732Z,20.10
2022-09-10T16:29:02.029Z,20.00
2022-09-10T16:31:32.948Z,20.10
2022-09-10T16:34:06.367Z,20.10
2022-09-10T16:36:36.989Z,20.00
2022-09-10T16:39:12.007Z,20.10
2022-09-10T16:41:42.739Z,20.10
2022-09-10T16:44:15.108Z,20.00
2022-09-10T16:46:44.124Z,20.00
2022-09-10T16:49:14.364Z,20.00
2022-09-10T16:51:44.515Z,20.00
2022-09-10T16:54:14.361Z,20.00
2022-09-10T16:56:48.477Z,20.00
2022-09-10T16:59:22.507Z,20.00
2022-09-10T17:01:53.441Z,19.90
2022-09-10T17:04:28.291Z,19.90
2022-09-10T17:06:58.809Z,19.90
2022-09-10T17:09:28.015Z,19.90
2022-09-10T17:11:55.576Z,19.80
2022-09-10T17:14:24.670Z,19.70
2022-09-10T17:16:56.843Z,19.70
2022-09-10T17:19:26.848Z,19.60
2022-09-10T17:21:58.471Z,19.60
2022-09-10T17:24:27.126Z,19.50
2022-09-10T17:26:58.452Z,19.50
2022-09-10T17:29:27.548Z,19.40
2022-09-10T17:31:55.684Z,19.40
2022-09-10T17:34:24.761Z,19.30
2022-09-10T17:36:52.336Z,19.30
2022-09-10T17:39:21.101Z,19.20
2022-09-10T17:41:50.598Z,19.20
2022-09-10T17:44:18.246Z,19.20
2022-09-10T17:46:48.387Z,19.10
2022-09-10T17:49:16.532Z,19.10
2022-09-10T17:51:44.787Z,19.00
2022-09-10T17:54:15.489Z,19.00
2022-09-10T17:56:43.965Z,19.00
2022-09-10T17:59:17.320Z,18.90
2022-09-10T18:01:46.420Z,18.90
2022-09-10T18:04:21.704Z,18.80
2022-09-10T18:06:52.232Z,18.80
2022-09-10T18:09:26.723Z,18.70
2022-09-10T18:11:57.726Z,18.70
2022-09-10T18:14:25.896Z,18.60
2022-09-10T18:16:55.851Z,18.60
2022-09-10T18:19:23.349Z,18.50
2022-09-10T18:21:51.404Z,18.50
2022-09-10T18:24:22.742Z,18.50
2022-09-10T18:26:52.277Z,18.40
2022-09-10T18:29:26.961Z,18.40
2022-09-10T18:31:59.652Z,18.40
2022-09-10T18:34:34.655Z,18.40
2022-09-10T18:37:07.129Z,18.30
2022-09-10T18:39:34.759Z,18.30
2022-09-10T18:42:04.046Z,18.30
2022-09-10T18:44:35.385Z,18.30
2022-09-10T18:47:08.997Z,18.20
2022-09-10T18:49:45.684Z,18.20
2022-09-10T18:52:17.426Z,18.10
2022-09-10T18:54:46.581Z,18.10
2022-09-10T18:57:14.978Z,18.10
2022-09-10T18:59:44.620Z,18.10
2022-09-10T19:02:18.118Z,18.00
2022-09-10T19:05:09.650Z,18.00
2022-09-10T19:07:33.896Z,18.00
2022-09-10T19:10:05.040Z,17.90
2022-09-10T19:12:39.264Z,17.90
2022-09-10T19:15:20.154Z,17.90
2022-09-10T19:17:48.379Z,17.90
2022-09-10T19:20:16.827Z,17.90
2022-09-10T19:22:44.543Z,17.80
2022-09-10T19:25:23.069Z,17.80
2022-09-10T19:27:50.516Z,17.70
2022-09-10T19:30:20.770Z,17.70
2022-09-10T19:32:56.324Z,17.70
2022-09-10T19:35:24.114Z,17.70
2022-09-10T19:37:51.458Z,17.60
2022-09-10T19:40:19.034Z,17.60
2022-09-10T19:42:47.733Z,17.60
2022-09-10T19:45:15.344Z,17.60
2022-09-10T19:47:49.247Z,17.60
2022-09-10T19:50:22.696Z,17.50
2022-09-10T19:52:50.937Z,17.50
2022-09-10T19:55:18.493Z,17.50
2022-09-10T19:57:45.766Z,17.50
2022-09-10T20:00:30.362Z,17.40
2022-09-10T20:03:07.682Z,17.50
2022-09-10T20:05:35.507Z,17.40
2022-09-10T20:08:04.871Z,17.40
2022-09-10T20:10:34.201Z,17.40
2022-09-10T20:13:02.973Z,17.40
2022-09-10T20:15:35.508Z,17.40
2022-09-10T20:18:04.030Z,17.40
2022-09-10T20:20:34.050Z,17.40
2022-09-10T20:23:05.035Z,17.40
2022-09-10T20:25:36.672Z,17.30
2022-09-10T20:28:04.253Z,17.30
2022-09-10T20:30:34.470Z,17.30
2022-09-10T20:33:04.291Z,17.30
2022-09-10T20:35:33.969Z,17.30
2022-09-10T20:38:04.908Z,17.20
2022-09-10T20:40:36.589Z,17.20
2022-09-10T20:43:04.202Z,17.20
2022-09-10T20:45:34.133Z,17.10
2022-09-10T20:48:03.043Z,17.10
2022-09-10T20:50:35.191Z,17.10
2022-09-10T20:53:03.424Z,17.00
2022-09-10T20:55:33.065Z,17.00
2022-09-10T20:58:04.324Z,16.90
2022-09-10T21:00:34.913Z,16.90
2022-09-10T21:03:04.798Z,16.90
2022-09-10T21:05:34.007Z,16.90
2022-09-10T21:08:04.099Z,16.80
2022-09-10T21:10:34.898Z,16.80
2022-09-10T21:13:11.878Z,16.70
2022-09-10T21:15:39.401Z,16.70
2022-09-10T21:18:06.647Z,16.70
2022-09-10T21:20:34.114Z,16.70
2022-09-10T21:23:08.867Z,16.70
2022-09-10T21:25:36.044Z,16.60
2022-09-10T21:28:10.836Z,16.60
2022-09-10T21:30:44.403Z,16.60
2022-09-10T21:33:12.291Z,16.50
2022-09-10T21:35:48.994Z,16.50
2022-09-10T21:38:17.662Z,16.50
2022-09-10T21:40:58.617Z,16.40
2022-09-10T21:43:27.579Z,16.40
2022-09-10T21:45:55.595Z,16.40
2022-09-10T21:48:24.347Z,16.40
2022-09-10T21:51:12.216Z,16.40
2022-09-10T21:53:41.156Z,16.30
2022-09-10T21:56:17.268Z,16.30
2022-09-10T21:58:49.423Z,16.30
2022-09-10T22:01:29.072Z,16.30
2022-09-10T22:03:58.494Z,16.30
2022-09-10T22:06:35.892Z,16.20
2022-09-10T22:09:11.289Z,16.20
2022-09-10T22:11:46.239Z,16.10
2022-09-10T22:14:19.139Z,16.10
2022-09-10T22:16:46.880Z,16.00
2022-09-10T22:22:03.084Z,16.00
2022-09-10T22:24:34.953Z,16.00
2022-09-10T22:27:07.092Z,16.00
2022-09-10T22:29:34.389Z,16.00
2022-09-10T22:32:05.108Z,15.90
2022-09-10T22:34:36.046Z,15.90
2022-09-10T22:37:04.049Z,15.90
2022-09-10T22:39:32.780Z,15.90
2022-09-10T22:42:04.808Z,15.80
2022-09-10T22:44:34.894Z,15.80
2022-09-10T22:47:09.897Z,15.80
2022-09-10T22:49:37.803Z,15.70
2022-09-10T22:52:05.284Z,15.70
2022-09-10T22:54:34.766Z,15.70
2022-09-10T22:57:04.096Z,15.70
2022-09-10T22:59:37.627Z,15.60
2022-09-10T23:02:05.547Z,15.60
2022-09-10T23:04:36.779Z,15.60
2022-09-10T23:07:04.917Z,15.60
2022-09-10T23:09:33.550Z,15.50
2022-09-10T23:12:04.979Z,15.50
2022-09-10T23:14:35.130Z,15.50
2022-09-10T23:17:05.322Z,15.50
2022-09-10T23:19:33.404Z,15.40
2022-09-10T23:22:04.066Z,15.40
2022-09-10T23:24:40.967Z,15.40
2022-09-10T23:27:12.013Z,15.40
2022-09-10T23:29:39.505Z,15.30
2022-09-10T23:32:07.053Z,15.40
2022-09-10T23:34:38.524Z,15.30
2022-09-10T23:37:06.697Z,15.30
2022-09-10T23:39:39.870Z,15.30
2022-09-10T23:42:10.741Z,15.30
2022-09-10T23:44:39.164Z,15.30
2022-09-10T23:47:07.389Z,15.30
2022-09-10T23:49:34.617Z,15.30
2022-09-10T23:52:03.859Z,15.30
2022-09-10T23:54:32.549Z,15.30
2022-09-10T23:57:05.375Z,15.30
2022-09-10T23:59:34.236Z,15.30
